Time;durP1;ratioP1;P1;durP2;ratioP2;P2;SDS_P1;SDS_P2;PMS_P1;PMS_P2;Temp;Humidity;BMP_temperature;BMP_pressure;BME280_temperature;BME280_humidity;BME280_pressure;Samples;Min_cycle;Max_cycle;Signal;HPM_P1;HPM_P2
2022/08/27 00:01:26;;;;;;;8.43;4.30;;;15.20;99.90;;;;;;5113700;27;20122;-83
2022/08/27 00:03:55;;;;;;;8.30;4.03;;;15.20;99.90;;;;;;5094692;27;20039;-82
2022/08/27 00:06:22;;;;;;;6.47;3.92;;;15.20;99.90;;;;;;5103040;27;20470;-82
2022/08/27 00:08:49;;;;;;;8.18;3.55;;;15.10;99.90;;;;;;5090942;27;20062;-83
2022/08/27 00:11:16;;;;;;;9.38;4.80;;;15.10;99.90;;;;;;5082622;27;20031;-82
2022/08/27 00:13:43;;;;;;;10.98;5.05;;;15.10;99.90;;;;;;5112324;27;20627;-82
2022/08/27 00:16:12;;;;;;;7.50;4.65;;;15.10;99.90;;;;;;5113168;27;20104;-82
2022/08/27 00:18:38;;;;;;;7.22;4.35;;;15.00;99.90;;;;;;5114359;27;20454;-82
2022/08/27 00:21:08;;;;;;;8.40;4.47;;;15.00;99.90;;;;;;5068314;27;20558;-82
2022/08/27 00:23:35;;;;;;;8.95;4.80;;;15.00;99.90;;;;;;5099872;27;20129;-83
2022/08/27 00:26:02;;;;;;;8.48;4.55;;;15.00;99.90;;;;;;5118603;27;20495;-82
2022/08/27 00:28:29;;;;;;;9.13;5.07;;;15.00;99.90;;;;;;5095018;27;20246;-82
2022/08/27 00:30:58;;;;;;;8.23;4.10;;;14.90;99.90;;;;;;5135331;27;20129;-82
2022/08/27 00:33:24;;;;;;;8.97;4.60;;;14.90;99.90;;;;;;5093760;27;20039;-82
2022/08/27 00:35:51;;;;;;;7.63;3.42;;;14.90;99.90;;;;;;5098683;27;20281;-82
2022/08/27 00:38:17;;;;;;;8.00;3.75;;;14.90;99.90;;;;;;5111577;27;20046;-83
2022/08/27 00:40:44;;;;;;;7.25;4.78;;;14.90;99.90;;;;;;5096791;27;20062;-82
2022/08/27 00:43:10;;;;;;;11.00;4.68;;;15.00;99.90;;;;;;5082948;27;20046;-82
2022/08/27 00:45:44;;;;;;;6.75;3.47;;;15.00;99.90;;;;;;5102370;27;20498;-82
2022/08/27 00:48:14;;;;;;;7.88;4.15;;;15.00;99.90;;;;;;5097580;27;20397;-82
2022/08/27 00:50:52;;;;;;;6.57;4.38;;;15.00;99.90;;;;;;5096730;27;20039;-82
2022/08/27 00:53:25;;;;;;;9.38;4.50;;;15.00;99.90;;;;;;5114714;27;20047;-82
2022/08/27 00:56:14;;;;;;;6.18;3.90;;;15.10;99.90;;;;;;5103047;27;20416;-82
2022/08/27 00:58:46;;;;;;;8.43;4.53;;;15.10;99.90;;;;;;5104456;27;20047;-78
2022/08/27 01:01:17;;;;;;;8.18;4.57;;;15.10;99.90;;;;;;5128793;27;20087;-77
2022/08/27 01:03:45;;;;;;;;;;;15.10;99.90;;;;;;5122494;27;20640;-78
2022/08/27 01:06:15;;;;;;;8.70;4.18;;;15.10;99.90;;;;;;5108868;27;19919;-77
2022/08/27 01:08:49;;;;;;;11.18;4.90;;;15.10;99.90;;;;;;5103566;27;20039;-82
2022/08/27 01:11:17;;;;;;;8.20;4.50;;;15.10;99.90;;;;;;5102521;27;20051;-82
2022/08/27 01:13:43;;;;;;;9.63;4.78;;;15.10;99.90;;;;;;5111479;27;20611;-82
2022/08/27 01:16:10;;;;;;;10.13;4.57;;;15.10;99.90;;;;;;5083171;27;20045;-82
2022/08/27 01:18:37;;;;;;;7.80;4.20;;;15.20;99.90;;;;;;5104868;27;20047;-82
2022/08/27 01:21:13;;;;;;;8.15;4.55;;;15.10;99.90;;;;;;5103631;27;20034;-82
2022/08/27 01:24:08;;;;;;;7.97;4.75;;;15.10;99.90;;;;;;5118549;27;20047;-82
2022/08/27 01:26:35;;;;;;;9.98;4.70;;;15.10;99.90;;;;;;5119454;27;20081;-82
2022/08/27 01:29:02;;;;;;;9.55;4.20;;;15.00;99.90;;;;;;5079040;27;20119;-82
2022/08/27 01:31:28;;;;;;;9.23;5.10;;;15.00;99.90;;;;;;5122280;27;20257;-82
2022/08/27 01:34:01;;;;;;;6.90;5.13;;;15.00;99.90;;;;;;5103449;27;20043;-82
2022/08/27 01:36:28;;;;;;;6.90;4.28;;;15.00;99.90;;;;;;5104830;27;20057;-82
2022/08/27 01:38:54;;;;;;;7.90;4.80;;;15.00;99.90;;;;;;5124809;27;20078;-82
2022/08/27 01:41:21;;;;;;;7.95;4.82;;;15.00;99.90;;;;;;5100018;27;20098;-82
2022/08/27 01:43:47;;;;;;;7.07;5.00;;;15.00;99.90;;;;;;5101867;27;20102;-82
2022/08/27 01:46:13;;;;;;;6.80;5.05;;;14.90;99.90;;;;;;5075416;27;20038;-82
2022/08/27 01:48:39;;;;;;;8.20;4.53;;;14.90;99.90;;;;;;5105395;27;20090;-82
2022/08/27 01:51:08;;;;;;;7.47;4.75;;;14.80;99.90;;;;;;5115947;27;20441;-82
2022/08/27 01:53:34;;;;;;;9.60;5.38;;;14.90;99.90;;;;;;5118630;27;20038;-82
2022/08/27 01:56:00;;;;;;;8.82;5.28;;;14.80;99.90;;;;;;5091701;27;20035;-82
2022/08/27 01:58:29;;;;;;;7.90;4.93;;;14.80;99.90;;;;;;5101690;27;20066;-82
2022/08/27 02:00:59;;;;;;;7.78;5.00;;;14.80;99.90;;;;;;5121320;27;20497;-82
2022/08/27 02:03:25;;;;;;;;;;;14.70;99.90;;;;;;5115550;27;20054;-83
2022/08/27 02:05:52;;;;;;;6.65;4.00;;;14.70;99.90;;;;;;5121470;27;19926;-82
2022/08/27 02:08:18;;;;;;;6.72;4.80;;;14.70;99.90;;;;;;5107893;27;20397;-82
2022/08/27 02:10:45;;;;;;;7.55;5.30;;;14.60;99.90;;;;;;5072430;27;20050;-82
2022/08/27 02:13:12;;;;;;;7.82;5.25;;;14.60;99.90;;;;;;5122893;27;20035;-82
2022/08/27 02:15:39;;;;;;;9.80;6.43;;;14.60;99.90;;;;;;5089614;27;20814;-82
2022/08/27 02:18:08;;;;;;;11.45;6.43;;;14.60;99.90;;;;;;5112710;27;20290;-82
2022/08/27 02:20:34;;;;;;;8.55;5.88;;;14.60;99.90;;;;;;5109814;27;20134;-82
2022/08/27 02:23:01;;;;;;;7.57;5.20;;;14.60;99.90;;;;;;5112939;27;20479;-83
2022/08/27 02:25:27;;;;;;;8.80;4.68;;;14.50;99.90;;;;;;5129276;27;20573;-82
2022/08/27 02:27:55;;;;;;;7.68;4.95;;;14.60;99.90;;;;;;5112125;27;20058;-83
2022/08/27 02:30:26;;;;;;;8.88;5.53;;;14.60;99.90;;;;;;5103475;27;20034;-82
2022/08/27 02:32:52;;;;;;;8.75;5.47;;;14.60;99.90;;;;;;5115379;27;20047;-83
2022/08/27 02:35:20;;;;;;;7.35;4.97;;;14.50;99.90;;;;;;5071847;27;20430;-82
2022/08/27 02:37:46;;;;;;;7.88;5.43;;;14.60;99.90;;;;;;5122618;27;20135;-82
2022/08/27 02:40:17;;;;;;;7.78;4.93;;;14.60;99.90;;;;;;5118152;27;20068;-82
2022/08/27 02:42:44;;;;;;;8.68;5.05;;;14.60;99.90;;;;;;5097438;27;20387;-84
2022/08/27 02:45:10;;;;;;;7.97;5.55;;;14.60;99.90;;;;;;5093218;27;20409;-83
2022/08/27 02:47:36;;;;;;;9.57;6.18;;;14.70;99.90;;;;;;5091133;27;20043;-83
2022/08/27 02:50:03;;;;;;;9.88;6.20;;;14.70;99.90;;;;;;5122049;27;20489;-82
2022/08/27 02:52:29;;;;;;;9.52;5.43;;;14.60;99.90;;;;;;5087321;27;20076;-82
2022/08/27 02:54:56;;;;;;;8.35;5.82;;;14.60;99.90;;;;;;5105725;27;20042;-83
2022/08/27 02:57:22;;;;;;;6.72;5.65;;;14.60;99.90;;;;;;5110703;27;20046;-82
2022/08/27 02:59:49;;;;;;;9.25;5.70;;;14.70;99.90;;;;;;5125376;27;20051;-82
2022/08/27 03:02:15;;;;;;;9.80;6.15;;;14.60;99.90;;;;;;5099498;27;20179;-83
2022/08/27 03:04:41;;;;;;;7.68;5.10;;;14.60;99.90;;;;;;5102515;27;20557;-83
2022/08/27 03:07:11;;;;;;;8.30;5.80;;;14.70;99.90;;;;;;5090641;27;20042;-82
2022/08/27 03:09:37;;;;;;;9.38;5.70;;;14.70;99.90;;;;;;5114006;27;20405;-78
2022/08/27 03:12:04;;;;;;;8.88;6.03;;;14.70;99.90;;;;;;5105961;27;20042;-77
2022/08/27 03:14:30;;;;;;;9.50;6.00;;;14.70;99.90;;;;;;5103600;27;20043;-78
2022/08/27 03:18:16;;;;;;;7.28;5.40;;;14.70;99.90;;;;;;5085798;27;20244;-77
2022/08/27 03:19:42;;;;;;;8.65;5.40;;;14.60;99.90;;;;;;5105450;27;20085;-77
2022/08/27 03:22:08;;;;;;;8.43;5.40;;;14.60;99.90;;;;;;5083200;27;20062;-77
2022/08/27 03:24:34;;;;;;;7.55;5.70;;;14.60;99.90;;;;;;5100379;27;20046;-77
2022/08/27 03:27:01;;;;;;;9.35;5.90;;;14.60;99.90;;;;;;5089237;27;20046;-77
2022/08/27 03:29:27;;;;;;;7.82;5.43;;;14.60;99.90;;;;;;5097153;27;20121;-76
2022/08/27 03:31:53;;;;;;;11.32;6.90;;;14.50;99.90;;;;;;5105775;27;20035;-77
2022/08/27 03:34:19;;;;;;;7.80;6.13;;;14.40;99.90;;;;;;5096314;27;20034;-77
2022/08/27 03:36:47;;;;;;;9.68;6.45;;;14.40;99.90;;;;;;5098294;27;20042;-78
2022/08/27 03:39:13;;;;;;;9.98;5.03;;;14.40;99.90;;;;;;5097303;27;20050;-76
2022/08/27 03:41:39;;;;;;;8.95;5.50;;;14.30;99.90;;;;;;5111137;27;20043;-77
2022/08/27 03:44:05;;;;;;;8.60;5.07;;;14.30;99.90;;;;;;5101515;27;20051;-77
2022/08/27 03:46:31;;;;;;;10.05;6.35;;;14.20;99.90;;;;;;5102059;27;20131;-77
2022/08/27 03:48:57;;;;;;;10.68;6.63;;;14.20;99.90;;;;;;5097382;27;20121;-78
2022/08/27 03:51:23;;;;;;;8.55;5.68;;;14.20;99.90;;;;;;5071150;28;20079;-77
2022/08/27 03:53:49;;;;;;;9.43;7.32;;;14.20;99.90;;;;;;5076539;28;20048;-76
2022/08/27 03:56:15;;;;;;;9.10;6.68;;;14.10;99.90;;;;;;5087922;28;20122;-77
2022/08/27 03:58:41;;;;;;;10.05;6.85;;;14.00;99.90;;;;;;5066299;27;20134;-77
2022/08/27 04:01:08;;;;;;;9.40;5.82;;;14.00;99.90;;;;;;5097819;27;20432;-78
2022/08/27 04:03:34;;;;;;;10.25;7.15;;;13.90;99.90;;;;;;5107030;27;20043;-78
2022/08/27 04:06:02;;;;;;;7.63;5.50;;;13.90;99.90;;;;;;5099296;28;20075;-82
2022/08/27 04:08:28;;;;;;;10.38;6.90;;;13.90;99.90;;;;;;5096229;28;20654;-82
2022/08/27 04:10:54;;;;;;;9.13;5.75;;;13.80;99.90;;;;;;5111104;27;20134;-82
2022/08/27 04:13:22;;;;;;;10.10;6.03;;;13.80;99.90;;;;;;5103355;28;20039;-82
2022/08/27 04:15:50;;;;;;;8.95;6.07;;;13.80;99.90;;;;;;5092171;28;20082;-82
2022/08/27 04:18:16;;;;;;;8.77;7.07;;;13.80;99.90;;;;;;5103144;28;20544;-82
2022/08/27 04:20:48;;;;;;;9.98;7.10;;;13.70;99.90;;;;;;5115574;27;20086;-82
2022/08/27 04:23:14;;;;;;;10.10;6.13;;;13.70;99.90;;;;;;5106739;28;20126;-82
2022/08/27 04:25:40;;;;;;;9.02;5.82;;;13.60;99.90;;;;;;5119187;28;20035;-82
2022/08/27 04:28:07;;;;;;;9.57;5.63;;;13.70;99.90;;;;;;5082242;28;20094;-82
2022/08/27 04:30:37;;;;;;;8.00;5.85;;;13.70;99.90;;;;;;5111935;27;20043;-82
2022/08/27 04:33:03;;;;;;;8.82;6.15;;;13.70;99.90;;;;;;5112915;27;20067;-82
2022/08/27 04:35:29;;;;;;;11.45;8.05;;;13.70;99.90;;;;;;5111536;27;20175;-82
2022/08/27 04:37:55;;;;;;;8.52;5.30;;;13.70;99.90;;;;;;5088971;27;20125;-82
2022/08/27 04:40:21;;;;;;;6.32;5.70;;;13.70;99.90;;;;;;5095689;28;20063;-82
2022/08/27 04:42:46;;;;;;;8.98;5.68;;;13.70;99.90;;;;;;5089894;28;20075;-82
2022/08/27 04:45:12;;;;;;;8.85;5.82;;;13.70;99.90;;;;;;5072238;28;20050;-82
2022/08/27 04:47:38;;;;;;;9.90;7.07;;;13.80;99.90;;;;;;5070568;28;20134;-82
2022/08/27 04:50:05;;;;;;;8.80;5.97;;;13.80;99.90;;;;;;5086426;28;20055;-82
2022/08/27 04:52:31;;;;;;;8.65;6.15;;;13.80;99.90;;;;;;5084160;28;20043;-82
2022/08/27 04:54:57;;;;;;;8.23;6.25;;;13.80;99.90;;;;;;5065888;28;20055;-82
2022/08/27 04:57:23;;;;;;;13.20;7.95;;;13.80;99.90;;;;;;5076013;28;20101;-82
2022/08/27 04:59:49;;;;;;;9.45;6.90;;;13.80;99.90;;;;;;5062218;28;20041;-82
2022/08/27 05:02:15;;;;;;;8.52;6.45;;;13.80;99.90;;;;;;5047616;28;20570;-83
2022/08/27 05:04:41;;;;;;;8.77;6.50;;;13.70;99.90;;;;;;5053283;28;20056;-83
2022/08/27 05:07:08;;;;;;;9.60;6.35;;;13.70;99.90;;;;;;5083145;28;20184;-83
2022/08/27 05:09:34;;;;;;;8.20;6.03;;;13.70;99.90;;;;;;5073157;28;20032;-79
2022/08/27 05:12:00;;;;;;;8.00;5.65;;;13.70;99.90;;;;;;5055285;28;20071;-79
2022/08/27 05:14:28;;;;;;;12.05;7.18;;;13.70;99.90;;;;;;5041687;28;20067;-78
2022/08/27 05:16:56;;;;;;;10.57;7.10;;;13.70;99.90;;;;;;5067709;28;20039;-79
2022/08/27 05:19:23;;;;;;;13.02;7.63;;;13.70;99.90;;;;;;5089573;28;20040;-78
2022/08/27 05:21:51;;;;;;;10.38;7.00;;;13.70;99.90;;;;;;5087086;28;20048;-79
2022/08/27 05:24:17;;;;;;;8.18;7.15;;;13.60;99.90;;;;;;5084584;28;20047;-79
2022/08/27 05:26:44;;;;;;;10.18;7.35;;;13.60;99.90;;;;;;5087513;28;20032;-80
2022/08/27 05:29:11;;;;;;;7.45;5.45;;;13.60;99.90;;;;;;5085490;28;20048;-79
2022/08/27 05:31:37;;;;;;;9.70;7.40;;;13.60;99.90;;;;;;5073731;28;20510;-79
2022/08/27 05:34:04;;;;;;;10.70;8.00;;;13.60;99.90;;;;;;5090199;28;20502;-79
2022/08/27 05:36:33;;;;;;;8.18;6.32;;;13.60;99.90;;;;;;5106220;28;20050;-79
2022/08/27 05:39:00;;;;;;;10.35;8.27;;;13.50;99.90;;;;;;5074109;27;20075;-80
2022/08/27 05:41:29;;;;;;;10.90;7.93;;;13.50;99.90;;;;;;5126478;27;20047;-79
2022/08/27 05:43:58;;;;;;;10.90;9.00;;;13.50;99.90;;;;;;5113008;27;20227;-79
2022/08/27 05:46:25;;;;;;;10.27;8.40;;;13.50;99.90;;;;;;5103742;27;20046;-78
2022/08/27 05:48:54;;;;;;;9.10;7.65;;;13.50;99.90;;;;;;5112480;27;20188;-78
2022/08/27 05:51:23;;;;;;;10.90;9.52;;;13.50;99.90;;;;;;5113436;27;20042;-78
2022/08/27 05:53:49;;;;;;;10.13;6.80;;;13.50;99.90;;;;;;5121134;27;20046;-79
2022/08/27 05:56:20;;;;;;;8.48;7.18;;;13.50;99.90;;;;;;5084185;27;20288;-78
2022/08/27 06:01:35;;;;;;;8.57;6.88;;;13.50;99.90;;;;;;5129777;27;20062;-83
2022/08/27 06:04:03;;;;;;;9.35;6.38;;;13.50;99.90;;;;;;5114965;27;20035;-83
2022/08/27 06:06:29;;;;;;;8.57;6.57;;;13.60;99.90;;;;;;5084964;27;20038;-83
2022/08/27 06:08:54;;;;;;;12.10;7.57;;;13.70;99.90;;;;;;5090197;27;20050;-83
2022/08/27 06:11:21;;;;;;;7.63;5.88;;;13.80;99.90;;;;;;5091791;27;20031;-83
2022/08/27 06:13:47;;;;;;;8.98;5.68;;;13.80;99.90;;;;;;5124773;27;20057;-83
2022/08/27 06:16:16;;;;;;;9.50;5.78;;;13.90;99.90;;;;;;5108728;27;20516;-82
2022/08/27 06:18:46;;;;;;;7.18;5.00;;;14.00;99.90;;;;;;5107232;27;20111;-83
2022/08/27 06:21:13;;;;;;;9.15;5.40;;;14.10;99.90;;;;;;5103066;27;20050;-82
2022/08/27 06:23:38;;;;;;;8.95;4.93;;;14.10;99.90;;;;;;5122644;27;20401;-83
2022/08/27 06:26:06;;;;;;;7.45;4.85;;;14.20;99.90;;;;;;5124453;27;20047;-83
2022/08/27 06:28:34;;;;;;;9.15;5.50;;;14.20;99.90;;;;;;5123803;27;20035;-83
2022/08/27 06:31:10;;;;;;;7.07;5.35;;;14.30;99.90;;;;;;5106199;27;20081;-83
2022/08/27 06:33:39;;;;;;;8.63;5.05;;;14.40;99.90;;;;;;5103436;27;20054;-83
2022/08/27 06:36:08;;;;;;;8.63;5.50;;;14.40;99.90;;;;;;5110861;27;20039;-83
2022/08/27 06:38:35;;;;;;;6.07;4.30;;;14.50;99.90;;;;;;5121896;27;20056;-83
2022/08/27 06:41:03;;;;;;;6.20;4.10;;;14.60;99.90;;;;;;5106633;27;20673;-83
2022/08/27 06:43:29;;;;;;;6.15;4.47;;;14.70;99.90;;;;;;5119602;27;20042;-83
2022/08/27 06:45:55;;;;;;;8.40;4.57;;;14.80;99.90;;;;;;5109376;27;20525;-82
2022/08/27 06:48:21;;;;;;;7.38;4.60;;;14.90;99.90;;;;;;5107396;27;20031;-83
2022/08/27 06:50:47;;;;;;;7.00;4.63;;;15.00;99.90;;;;;;5110261;27;20564;-83
2022/08/27 06:53:13;;;;;;;7.80;4.60;;;15.20;99.90;;;;;;5122580;27;20045;-83
2022/08/27 06:55:47;;;;;;;8.13;4.45;;;15.30;99.90;;;;;;5110756;27;20049;-83
2022/08/27 06:58:13;;;;;;;8.52;4.45;;;15.40;99.90;;;;;;5127213;27;20039;-82
2022/08/27 07:00:40;;;;;;;6.40;4.35;;;15.50;99.90;;;;;;5097664;27;20046;-82
2022/08/27 07:03:10;;;;;;;7.40;4.25;;;15.60;99.90;;;;;;5130412;27;20151;-82
2022/08/27 07:05:39;;;;;;;6.63;4.18;;;15.70;99.90;;;;;;5122337;27;20070;-82
2022/08/27 07:08:06;;;;;;;9.30;4.30;;;15.80;99.90;;;;;;5129602;27;20046;-82
2022/08/27 07:10:33;;;;;;;7.65;4.07;;;15.90;99.90;;;;;;5085608;27;20268;-82
2022/08/27 07:12:59;;;;;;;7.13;4.25;;;16.10;99.90;;;;;;5107032;27;20067;-83
2022/08/27 07:15:26;;;;;;;9.82;3.60;;;16.20;99.90;;;;;;5106549;27;20577;-82
2022/08/27 07:17:53;;;;;;;7.13;2.95;;;16.30;99.90;;;;;;5108635;27;20119;-78
2022/08/27 07:20:19;;;;;;;8.15;3.25;;;16.50;99.90;;;;;;5119527;27;20072;-82
2022/08/27 07:22:45;;;;;;;5.57;2.53;;;16.60;99.90;;;;;;5102503;27;20081;-81
2022/08/27 07:25:17;;;;;;;8.57;2.75;;;16.80;99.90;;;;;;5127034;27;20050;-82
2022/08/27 07:27:43;;;;;;;5.15;2.38;;;17.00;99.90;;;;;;5108190;27;20050;-82
2022/08/27 07:30:12;;;;;;;7.78;2.60;;;17.20;99.90;;;;;;5093164;27;20043;-82
2022/08/27 07:32:38;;;;;;;6.53;2.40;;;17.30;99.90;;;;;;5114728;27;20150;-82
2022/08/27 07:35:08;;;;;;;7.22;2.00;;;17.40;99.90;;;;;;5126170;27;20520;-82
2022/08/27 07:37:38;;;;;;;5.15;2.08;;;17.50;99.90;;;;;;5128284;27;20054;-82
2022/08/27 07:40:05;;;;;;;;;;;17.50;99.90;;;;;;5110331;27;20059;-83
2022/08/27 07:45:15;;;;;;;6.97;2.40;;;17.50;99.90;;;;;;5109454;27;20051;-81
2022/08/27 07:47:41;;;;;;;6.53;2.45;;;17.60;99.90;;;;;;5105885;27;20054;-82
2022/08/27 07:50:07;;;;;;;6.82;1.80;;;17.70;99.90;;;;;;5117787;27;20418;-82
2022/08/27 07:52:33;;;;;;;7.45;2.55;;;17.80;99.90;;;;;;5104680;28;20039;-83
2022/08/27 07:54:59;;;;;;;8.48;2.33;;;18.00;99.90;;;;;;5122457;27;20051;-82
2022/08/27 07:57:25;;;;;;;5.68;1.90;;;18.20;99.90;;;;;;5090051;28;20462;-81
2022/08/27 07:59:52;;;;;;;7.93;1.95;;;18.40;99.90;;;;;;5100507;28;20126;-82
2022/08/27 08:02:18;;;;;;;8.82;2.20;;;18.70;99.90;;;;;;5100825;28;20039;-82
2022/08/27 08:04:44;;;;;;;7.97;2.05;;;19.00;99.90;;;;;;5087712;27;20035;-88
2022/08/27 08:07:10;;;;;;;7.35;1.80;;;19.30;99.90;;;;;;5101624;28;20031;-84
2022/08/27 08:09:37;;;;;;;10.30;2.42;;;19.50;99.90;;;;;;5091641;28;20047;-82
2022/08/27 08:12:03;;;;;;;8.90;2.10;;;19.60;99.90;;;;;;5101652;28;20042;-80
2022/08/27 08:14:31;;;;;;;4.38;1.80;;;19.70;99.90;;;;;;5090172;28;20047;-81
2022/08/27 08:17:04;;;;;;;6.03;1.73;;;19.90;99.90;;;;;;5082703;27;20047;-81
2022/08/27 08:19:31;;;;;;;7.78;2.30;;;20.00;99.90;;;;;;5107740;27;20042;-81
2022/08/27 08:21:57;;;;;;;6.90;1.55;;;20.20;99.90;;;;;;5093714;28;20055;-80
2022/08/27 08:24:23;;;;;;;5.50;1.50;;;20.40;99.90;;;;;;5108029;28;20031;-83
2022/08/27 08:26:49;;;;;;;5.57;1.70;;;20.50;99.90;;;;;;5087623;28;20557;-85
2022/08/27 08:29:15;;;;;;;5.57;1.75;;;20.60;99.90;;;;;;5098211;28;20047;-81
2022/08/27 08:31:42;;;;;;;6.07;1.58;;;20.60;99.90;;;;;;5106758;28;20044;-83
2022/08/27 08:34:09;;;;;;;5.88;1.77;;;20.60;99.90;;;;;;5119390;28;20449;-82
2022/08/27 08:36:35;;;;;;;7.25;1.70;;;20.40;99.90;;;;;;5104145;28;20054;-79
2022/08/27 08:39:02;;;;;;;8.10;1.80;;;20.30;99.90;;;;;;5092429;28;20056;-78
2022/08/27 08:41:48;;;;;;;8.82;2.13;;;20.20;99.90;;;;;;5116706;28;20043;-78
2022/08/27 08:44:31;;;;;;;6.68;1.63;;;20.10;99.90;;;;;;5113733;27;20047;-78
2022/08/27 08:47:08;;;;;;;7.00;1.83;;;20.00;99.90;;;;;;5104356;28;20097;-78
2022/08/27 08:50:04;;;;;;;8.63;1.98;;;19.80;99.90;;;;;;5119786;28;20031;-79
2022/08/27 08:53:10;;;;;;;8.43;1.75;;;19.80;99.90;;;;;;5118123;28;20064;-78
2022/08/27 08:55:54;;;;;;;7.35;2.10;;;19.60;99.90;;;;;;5021439;28;20053;-79
2022/08/27 08:58:33;;;;;;;6.28;1.90;;;19.50;99.90;;;;;;5111663;28;20593;-79
2022/08/27 09:01:02;;;;;;;8.25;2.00;;;19.40;99.90;;;;;;5091161;28;20044;-79
2022/08/27 09:03:31;;;;;;;7.72;1.92;;;19.40;99.90;;;;;;5097565;28;20039;-81
2022/08/27 09:06:07;;;;;;;5.93;1.60;;;19.40;99.90;;;;;;5117686;28;20043;-80
2022/08/27 09:08:39;;;;;;;7.75;1.58;;;19.40;99.90;;;;;;5124388;28;20039;-85
2022/08/27 09:11:08;;;;;;;6.15;1.38;;;19.40;99.90;;;;;;5100925;28;20047;-83
2022/08/27 09:13:39;;;;;;;7.60;1.83;;;19.40;99.90;;;;;;5109222;28;20342;-78
2022/08/27 09:16:08;;;;;;;5.82;1.33;;;19.40;99.90;;;;;;5108809;27;20058;-83
2022/08/27 09:18:39;;;;;;;6.53;1.48;;;19.30;99.90;;;;;;5102982;28;20607;-84
2022/08/27 09:21:10;;;;;;;7.18;1.73;;;19.40;99.90;;;;;;5116235;27;20035;-81
2022/08/27 09:23:42;;;;;;;8.43;1.73;;;19.40;99.90;;;;;;5119414;27;20063;-80
2022/08/27 09:26:24;;;;;;;7.95;1.80;;;19.40;99.90;;;;;;5107106;27;20039;-81
2022/08/27 09:29:15;;;;;;;8.32;2.20;;;19.40;99.90;;;;;;5101550;27;20047;-81
2022/08/27 09:31:44;;;;;;;8.20;1.83;;;19.50;99.90;;;;;;5120800;27;20059;-77
2022/08/27 09:34:11;;;;;;;7.75;1.55;;;19.50;99.90;;;;;;5105046;27;20088;-80
2022/08/27 09:37:06;;;;;;;6.43;2.22;;;19.50;99.90;;;;;;5112275;27;20142;-77
2022/08/27 09:39:42;;;;;;;7.07;1.52;;;19.60;99.90;;;;;;5115252;27;20521;-81
2022/08/27 09:42:33;;;;;;;5.93;1.17;;;19.60;99.90;;;;;;5124251;27;20497;-83
2022/08/27 09:44:59;;;;;;;7.72;1.55;;;19.60;99.90;;;;;;5098707;28;20043;-80
2022/08/27 09:47:25;;;;;;;9.23;1.85;;;19.70;99.90;;;;;;5091730;27;20361;-79
2022/08/27 09:50:06;;;;;;;7.00;1.30;;;19.80;99.90;;;;;;5106013;27;20075;-81
2022/08/27 09:52:54;;;;;;;7.07;1.55;;;19.80;99.90;;;;;;5118961;27;20036;-81
2022/08/27 09:55:42;;;;;;;7.65;1.50;;;19.90;99.90;;;;;;5108956;27;20051;-82
2022/08/27 09:58:25;;;;;;;7.45;1.50;;;19.90;99.90;;;;;;5121489;27;20059;-82
2022/08/27 10:01:19;;;;;;;6.63;1.45;;;19.90;99.90;;;;;;5098130;27;20047;-79
2022/08/27 10:03:45;;;;;;;6.07;1.70;;;20.00;99.90;;;;;;5121224;27;20190;-81
2022/08/27 10:06:11;;;;;;;5.90;1.30;;;20.00;99.90;;;;;;5121448;27;20039;-80
2022/08/27 10:08:44;;;;;;;5.95;1.52;;;20.00;99.90;;;;;;5121403;27;20136;-81
2022/08/27 10:11:18;;;;;;;6.90;1.55;;;20.10;99.90;;;;;;5126583;27;20078;-79
2022/08/27 10:14:02;;;;;;;4.55;1.45;;;20.10;99.90;;;;;;5119069;27;20126;-81
2022/08/27 10:16:53;;;;;;;8.55;1.55;;;20.20;99.90;;;;;;5117753;27;20051;-80
2022/08/27 10:19:28;;;;;;;5.82;1.20;;;20.20;99.90;;;;;;5103228;27;20043;-80
2022/08/27 10:22:02;;;;;;;6.03;1.40;;;20.30;99.90;;;;;;5117791;27;20065;-83
2022/08/27 10:24:52;;;;;;;6.10;1.42;;;20.50;99.90;;;;;;5108656;27;20031;-85
2022/08/27 10:27:27;;;;;;;9.63;2.15;;;20.60;99.90;;;;;;5108595;27;20066;-81
2022/08/27 10:30:14;;;;;;;4.15;1.33;;;20.60;99.90;;;;;;5106769;27;20046;-84
2022/08/27 10:33:18;;;;;;;5.53;1.35;;;20.70;99.90;;;;;;5119366;27;20081;-81
2022/08/27 10:36:02;;;;;;;7.63;1.67;;;20.60;99.90;;;;;;5088795;27;20051;-80
2022/08/27 10:38:43;;;;;;;6.28;1.50;;;20.40;99.90;;;;;;5126604;27;20054;-80
2022/08/27 10:41:28;;;;;;;7.13;1.77;;;20.20;99.90;;;;;;5107292;27;20055;-80
2022/08/27 10:44:15;;;;;;;8.13;1.60;;;20.10;99.90;;;;;;5096969;28;20051;-79
2022/08/27 10:47:13;;;;;;;9.13;1.90;;;19.90;99.90;;;;;;5120685;27;20112;-82
2022/08/27 10:50:04;;;;;;;5.68;1.50;;;19.90;99.90;;;;;;5078124;27;20047;-82
2022/08/27 10:53:06;;;;;;;6.10;1.45;;;19.80;99.90;;;;;;5127062;27;20066;-79
2022/08/27 10:55:44;;;;;;;8.70;1.50;;;19.80;99.90;;;;;;5100929;27;20036;-82
2022/08/27 10:58:35;;;;;;;6.50;1.60;;;19.90;99.90;;;;;;5105386;27;20047;-81
2022/08/27 11:01:29;;;;;;;6.32;1.55;;;20.00;99.90;;;;;;5098157;27;20434;-82
2022/08/27 11:04:10;;;;;;;5.72;1.63;;;20.10;99.90;;;;;;5115418;27;20053;-81
2022/08/27 11:06:51;;;;;;;6.97;2.00;;;20.10;99.90;;;;;;5089117;27;20056;-81
2022/08/27 11:09:23;;;;;;;6.38;1.73;;;20.20;99.90;;;;;;5116515;27;20047;-82
2022/08/27 11:11:55;;;;;;;6.50;1.45;;;20.30;99.90;;;;;;5097995;27;20061;-82
2022/08/27 11:14:38;;;;;;;5.65;1.50;;;20.30;99.90;;;;;;5112189;27;20061;-82
2022/08/27 11:17:13;;;;;;;8.18;1.80;;;20.40;99.90;;;;;;5112579;27;20108;-81
2022/08/27 11:19:45;;;;;;;7.70;1.85;;;20.40;99.90;;;;;;5110011;27;20074;-80
2022/08/27 11:22:21;;;;;;;7.90;1.52;;;20.40;99.90;;;;;;5113287;27;20047;-81
2022/08/27 11:24:51;;;;;;;6.07;1.33;;;20.50;99.90;;;;;;5104046;27;20047;-80
2022/08/27 11:27:21;;;;;;;8.20;1.63;;;20.50;99.90;;;;;;5110902;27;20043;-82
2022/08/27 11:30:03;;;;;;;7.90;1.75;;;20.60;99.90;;;;;;5097658;27;20073;-85
2022/08/27 11:32:48;;;;;;;5.45;1.38;;;20.70;99.90;;;;;;5102017;27;20035;-81
2022/08/27 11:35:29;;;;;;;7.15;1.45;;;20.80;99.90;;;;;;5101278;27;20046;-78
2022/08/27 11:38:01;;;;;;;6.65;1.50;;;20.90;99.90;;;;;;5115939;27;20100;-80
2022/08/27 11:40:32;;;;;;;4.80;1.30;;;20.80;98.70;;;;;;5094391;27;20062;-81
2022/08/27 11:43:05;;;;;;;6.05;1.42;;;20.70;99.80;;;;;;5113344;27;20082;-82
2022/08/27 11:45:37;;;;;;;7.60;1.42;;;20.60;99.90;;;;;;5093881;27;20043;-81
2022/08/27 11:48:21;;;;;;;8.10;1.58;;;20.70;99.10;;;;;;5104502;27;20047;-83
2022/08/27 11:50:57;;;;;;;6.28;1.60;;;20.70;99.90;;;;;;5099258;27;20512;-84
2022/08/27 11:53:32;;;;;;;6.65;1.63;;;20.70;99.90;;;;;;5097629;28;20444;-83
2022/08/27 11:56:14;;;;;;;6.20;1.30;;;20.70;99.90;;;;;;5097414;28;20489;-83
2022/08/27 11:58:42;;;;;;;5.75;1.50;;;20.80;99.90;;;;;;5105723;27;20078;-80
2022/08/27 12:01:26;;;;;;;6.82;1.52;;;20.90;99.90;;;;;;5117958;27;20047;-80
2022/08/27 12:04:28;;;;;;;8.32;1.45;;;21.10;99.90;;;;;;5112213;27;20043;-81
2022/08/27 12:07:12;;;;;;;6.30;1.20;;;21.10;99.90;;;;;;5101143;27;20616;-82
2022/08/27 12:10:01;;;;;;;7.20;1.33;;;21.30;99.90;;;;;;5096271;28;20073;-84
2022/08/27 12:12:54;;;;;;;5.78;1.30;;;21.70;96.30;;;;;;5097013;28;20048;-82
2022/08/27 12:15:48;;;;;;;5.82;1.35;;;21.80;98.00;;;;;;5111710;27;20049;-82
2022/08/27 12:18:59;;;;;;;7.68;1.52;;;21.90;96.00;;;;;;5110917;27;20134;-81
2022/08/27 12:21:37;;;;;;;6.60;1.40;;;21.90;96.40;;;;;;5099602;28;20400;-80
2022/08/27 12:24:09;;;;;;;9.10;1.60;;;21.80;96.80;;;;;;5090351;28;20067;-82
2022/08/27 12:26:38;;;;;;;5.68;1.20;;;21.60;98.20;;;;;;5114410;28;20047;-81
2022/08/27 12:29:34;;;;;;;9.45;1.50;;;21.50;98.40;;;;;;5097456;28;20043;-80
2022/08/27 12:32:15;;;;;;;6.03;1.23;;;21.40;98.40;;;;;;5099440;28;20039;-82
2022/08/27 12:34:47;;;;;;;6.38;1.45;;;21.20;98.10;;;;;;5098112;28;20043;-82
2022/08/27 12:37:13;;;;;;;5.60;1.05;;;21.10;99.00;;;;;;5110498;27;20040;-80
2022/08/27 12:39:43;;;;;;;4.75;1.08;;;21.10;97.10;;;;;;5107258;28;20124;-81
2022/08/27 12:42:18;;;;;;;7.90;1.50;;;21.00;97.70;;;;;;5111366;28;20054;-79
2022/08/27 12:44:44;;;;;;;9.85;2.45;;;21.00;98.40;;;;;;5116062;28;20132;-80
2022/08/27 12:47:12;;;;;;;6.78;1.23;;;21.00;98.80;;;;;;5076192;28;20040;-82
2022/08/27 12:49:56;;;;;;;8.57;1.50;;;21.20;97.40;;;;;;5101088;27;21149;-80
2022/08/27 12:53:04;;;;;;;5.60;1.30;;;21.30;98.30;;;;;;5096797;28;20032;-80
2022/08/27 12:55:53;;;;;;;8.52;1.70;;;21.60;98.80;;;;;;5124438;27;20047;-81
2022/08/27 12:58:29;;;;;;;4.45;1.30;;;22.00;96.60;;;;;;5102083;27;20047;-79
2022/08/27 13:01:19;;;;;;;4.97;0.90;;;22.10;94.40;;;;;;5094518;28;20047;-81
2022/08/27 13:03:52;;;;;;;5.40;1.10;;;22.10;91.80;;;;;;5100878;27;20071;-78
2022/08/27 13:06:29;;;;;;;4.50;1.00;;;21.90;91.50;;;;;;5121612;27;20435;-78
2022/08/27 13:08:58;;;;;;;4.95;1.30;;;21.80;91.50;;;;;;5130064;27;20427;-81
2022/08/27 13:11:31;;;;;;;5.53;1.15;;;21.80;89.80;;;;;;5097068;27;20105;-82
2022/08/27 13:14:10;;;;;;;5.25;1.50;;;21.80;85.60;;;;;;5106486;27;20059;-82